sensor_id;sensor_type;location;lat;lon;timestamp;temperature;humidity
9800;DHT22;4939;52.00085300;4.17406100;2023-07-20T00:01:09;17.10;99.90
9800;DHT22;4939;52.00085300;4.17406100;2023-07-20T00:03:35;16.50;99.90
9800;DHT22;4939;52.00085300;4.17406100;2023-07-20T00:06:00;16.50;99.90
9800;DHT22;4939;52.00085300;4.17406100;2023-07-20T00:08:26;16.50;99.90
9800;DHT22;4939;52.00085300;4.17406100;2023-07-20T00:10:51;16.50;99.90
9800;DHT22;4939;52.00085300;4.17406100;2023-07-20T00:13:18;16.50;99.90
9800;DHT22;4939;52.00085300;4.17406100;2023-07-20T00:15:46;16.60;99.90
9800;DHT22;4939;52.00085300;4.17406100;2023-07-20T00:18:12;16.50;99.90
9800;DHT22;4939;52.00085300;4.17406100;2023-07-20T00:20:38;16.50;99.90
9800;DHT22;4939;52.00085300;4.17406100;2023-07-20T00:23:05;16.40;99.90
9800;DHT22;4939;52.00085300;4.17406100;2023-07-20T00:25:30;16.30;99.90
9800;DHT22;4939;52.00085300;4.17406100;2023-07-20T00:27:56;16.30;99.90
9800;DHT22;4939;52.00085300;4.17406100;2023-07-20T00:30:21;16.10;99.90
9800;DHT22;4939;52.00085300;4.17406100;2023-07-20T00:32:47;16.10;99.90
9800;DHT22;4939;52.00085300;4.17406100;2023-07-20T00:35:13;18.00;99.90
9800;DHT22;4939;52.00085300;4.17406100;2023-07-20T00:37:39;16.00;99.90
9800;DHT22;4939;52.00085300;4.17406100;2023-07-20T00:40:06;16.00;99.90
9800;DHT22;4939;52.00085300;4.17406100;2023-07-20T00:42:36;16.00;99.90
9800;DHT22;4939;52.00085300;4.17406100;2023-07-20T00:45:02;16.00;99.90
9800;DHT22;4939;52.00085300;4.17406100;2023-07-20T00:47:28;16.00;99.90
9800;DHT22;4939;52.00085300;4.17406100;2023-07-20T00:49:54;15.90;99.90
9800;DHT22;4939;52.00085300;4.17406100;2023-07-20T00:52:23;15.90;99.90
9800;DHT22;4939;52.00085300;4.17406100;2023-07-20T00:54:51;15.80;99.90
9800;DHT22;4939;52.00085300;4.17406100;2023-07-20T00:57:17;15.90;99.90
9800;DHT22;4939;52.00085300;4.17406100;2023-07-20T00:59:44;15.80;99.90
9800;DHT22;4939;52.00085300;4.17406100;2023-07-20T01:02:10;15.70;99.90
9800;DHT22;4939;52.00085300;4.17406100;2023-07-20T01:04:36;15.80;99.90
9800;DHT22;4939;52.00085300;4.17406100;2023-07-20T01:07:17;15.70;99.90
9800;DHT22;4939;52.00085300;4.17406100;2023-07-20T01:12:25;15.70;99.90
9800;DHT22;4939;52.00085300;4.17406100;2023-07-20T01:14:52;15.70;99.90
9800;DHT22;4939;52.00085300;4.17406100;2023-07-20T01:17:19;15.80;99.90
9800;DHT22;4939;52.00085300;4.17406100;2023-07-20T01:19:45;15.80;99.90
9800;DHT22;4939;52.00085300;4.17406100;2023-07-20T01:33:25;15.90;99.90
9800;DHT22;4939;52.00085300;4.17406100;2023-07-20T01:35:57;16.00;99.90
9800;DHT22;4939;52.00085300;4.17406100;2023-07-20T01:38:24;16.00;99.90
9800;DHT22;4939;52.00085300;4.17406100;2023-07-20T01:40:50;16.00;99.90
9800;DHT22;4939;52.00085300;4.17406100;2023-07-20T01:43:17;16.00;99.90
9800;DHT22;4939;52.00085300;4.17406100;2023-07-20T01:45:43;16.00;99.90
9800;DHT22;4939;52.00085300;4.17406100;2023-07-20T01:48:09;16.00;99.90
9800;DHT22;4939;52.00085300;4.17406100;2023-07-20T01:50:35;16.00;99.90
9800;DHT22;4939;52.00085300;4.17406100;2023-07-20T01:53:01;16.00;99.90
9800;DHT22;4939;52.00085300;4.17406100;2023-07-20T01:55:27;16.80;99.90
9800;DHT22;4939;52.00085300;4.17406100;2023-07-20T01:57:53;16.00;99.90
9800;DHT22;4939;52.00085300;4.17406100;2023-07-20T02:00:19;16.10;99.90
9800;DHT22;4939;52.00085300;4.17406100;2023-07-20T02:02:46;16.10;99.90
9800;DHT22;4939;52.00085300;4.17406100;2023-07-20T02:05:13;16.10;99.90
9800;DHT22;4939;52.00085300;4.17406100;2023-07-20T02:07:39;16.00;99.90
9800;DHT22;4939;52.00085300;4.17406100;2023-07-20T02:10:05;16.00;99.90
9800;DHT22;4939;52.00085300;4.17406100;2023-07-20T02:12:31;16.00;99.90
9800;DHT22;4939;52.00085300;4.17406100;2023-07-20T02:14:56;16.00;99.90
9800;DHT22;4939;52.00085300;4.17406100;2023-07-20T02:17:22;16.00;99.90
9800;DHT22;4939;52.00085300;4.17406100;2023-07-20T02:19:53;16.00;99.90
9800;DHT22;4939;52.00085300;4.17406100;2023-07-20T02:22:20;16.00;99.90
9800;DHT22;4939;52.00085300;4.17406100;2023-07-20T02:24:46;16.00;99.90
9800;DHT22;4939;52.00085300;4.17406100;2023-07-20T02:27:12;16.00;99.90
9800;DHT22;4939;52.00085300;4.17406100;2023-07-20T02:29:38;16.00;99.90
9800;DHT22;4939;52.00085300;4.17406100;2023-07-20T02:32:04;16.00;99.90
9800;DHT22;4939;52.00085300;4.17406100;2023-07-20T02:34:30;16.00;99.90
9800;DHT22;4939;52.00085300;4.17406100;2023-07-20T02:36:55;15.90;99.90
9800;DHT22;4939;52.00085300;4.17406100;2023-07-20T02:39:27;16.40;99.90
9800;DHT22;4939;52.00085300;4.17406100;2023-07-20T02:41:53;15.90;99.90
9800;DHT22;4939;52.00085300;4.17406100;2023-07-20T02:44:19;15.80;99.90
9800;DHT22;4939;52.00085300;4.17406100;2023-07-20T02:46:45;15.80;99.90
9800;DHT22;4939;52.00085300;4.17406100;2023-07-20T02:49:11;15.70;99.90
9800;DHT22;4939;52.00085300;4.17406100;2023-07-20T02:51:39;15.70;99.90
9800;DHT22;4939;52.00085300;4.17406100;2023-07-20T02:54:04;15.60;99.90
9800;DHT22;4939;52.00085300;4.17406100;2023-07-20T02:56:30;15.60;99.90
9800;DHT22;4939;52.00085300;4.17406100;2023-07-20T02:58:55;15.50;99.90
9800;DHT22;4939;52.00085300;4.17406100;2023-07-20T03:01:22;15.50;99.90
9800;DHT22;4939;52.00085300;4.17406100;2023-07-20T03:03:48;15.50;99.90
9800;DHT22;4939;52.00085300;4.17406100;2023-07-20T03:06:15;15.50;99.90
9800;DHT22;4939;52.00085300;4.17406100;2023-07-20T03:08:42;15.50;99.90
9800;DHT22;4939;52.00085300;4.17406100;2023-07-20T03:11:13;15.50;99.90
9800;DHT22;4939;52.00085300;4.17406100;2023-07-20T03:13:40;15.50;99.90
9800;DHT22;4939;52.00085300;4.17406100;2023-07-20T03:16:07;15.50;99.90
9800;DHT22;4939;52.00085300;4.17406100;2023-07-20T03:18:37;15.50;99.90
9800;DHT22;4939;52.00085300;4.17406100;2023-07-20T03:21:04;15.50;99.90
9800;DHT22;4939;52.00085300;4.17406100;2023-07-20T03:23:30;15.50;99.90
9800;DHT22;4939;52.00085300;4.17406100;2023-07-20T03:25:56;15.50;99.90
9800;DHT22;4939;52.00085300;4.17406100;2023-07-20T03:28:21;15.50;99.90
9800;DHT22;4939;52.00085300;4.17406100;2023-07-20T03:30:53;15.40;99.90
9800;DHT22;4939;52.00085300;4.17406100;2023-07-20T03:33:19;15.40;99.90
9800;DHT22;4939;52.00085300;4.17406100;2023-07-20T03:35:45;15.40;99.90
9800;DHT22;4939;52.00085300;4.17406100;2023-07-20T03:38:10;15.40;99.90
9800;DHT22;4939;52.00085300;4.17406100;2023-07-20T03:40:36;15.50;99.90
9800;DHT22;4939;52.00085300;4.17406100;2023-07-20T03:43:02;15.50;99.90
9800;DHT22;4939;52.00085300;4.17406100;2023-07-20T03:45:28;15.50;99.90
9800;DHT22;4939;52.00085300;4.17406100;2023-07-20T03:47:54;15.60;99.90
9800;DHT22;4939;52.00085300;4.17406100;2023-07-20T03:50:19;15.70;99.90
9800;DHT22;4939;52.00085300;4.17406100;2023-07-20T03:52:45;15.70;99.90
9800;DHT22;4939;52.00085300;4.17406100;2023-07-20T03:55:11;15.70;99.90
9800;DHT22;4939;52.00085300;4.17406100;2023-07-20T03:57:36;15.70;99.90
9800;DHT22;4939;52.00085300;4.17406100;2023-07-20T04:00:02;15.70;99.90
9800;DHT22;4939;52.00085300;4.17406100;2023-07-20T04:02:32;15.70;99.90
9800;DHT22;4939;52.00085300;4.17406100;2023-07-20T04:04:57;15.70;99.90
9800;DHT22;4939;52.00085300;4.17406100;2023-07-20T04:07:23;15.70;99.90
9800;DHT22;4939;52.00085300;4.17406100;2023-07-20T04:09:49;15.70;99.90
9800;DHT22;4939;52.00085300;4.17406100;2023-07-20T04:12:14;15.70;99.90
9800;DHT22;4939;52.00085300;4.17406100;2023-07-20T04:14:40;15.80;99.90
9800;DHT22;4939;52.00085300;4.17406100;2023-07-20T04:17:06;15.90;99.90
9800;DHT22;4939;52.00085300;4.17406100;2023-07-20T04:19:31;15.90;99.90
9800;DHT22;4939;52.00085300;4.17406100;2023-07-20T04:21:57;16.00;99.90
9800;DHT22;4939;52.00085300;4.17406100;2023-07-20T04:24:23;15.90;99.90
9800;DHT22;4939;52.00085300;4.17406100;2023-07-20T04:26:48;16.00;99.90
9800;DHT22;4939;52.00085300;4.17406100;2023-07-20T04:29:14;16.00;99.90
9800;DHT22;4939;52.00085300;4.17406100;2023-07-20T04:31:39;15.90;99.90
9800;DHT22;4939;52.00085300;4.17406100;2023-07-20T04:34:05;15.90;99.90
9800;DHT22;4939;52.00085300;4.17406100;2023-07-20T04:36:31;16.00;99.90
9800;DHT22;4939;52.00085300;4.17406100;2023-07-20T04:38:56;15.90;99.90
9800;DHT22;4939;52.00085300;4.17406100;2023-07-20T04:41:22;15.90;99.90
9800;DHT22;4939;52.00085300;4.17406100;2023-07-20T04:43:48;15.90;99.90
9800;DHT22;4939;52.00085300;4.17406100;2023-07-20T04:46:14;15.90;99.90
9800;DHT22;4939;52.00085300;4.17406100;2023-07-20T04:48:39;15.90;99.90
9800;DHT22;4939;52.00085300;4.17406100;2023-07-20T04:51:06;15.90;99.90
9800;DHT22;4939;52.00085300;4.17406100;2023-07-20T04:53:31;15.90;99.90
9800;DHT22;4939;52.00085300;4.17406100;2023-07-20T04:55:57;15.90;99.90
9800;DHT22;4939;52.00085300;4.17406100;2023-07-20T04:58:23;15.80;99.90
9800;DHT22;4939;52.00085300;4.17406100;2023-07-20T05:00:49;15.80;99.90
9800;DHT22;4939;52.00085300;4.17406100;2023-07-20T05:03:15;15.80;99.90
9800;DHT22;4939;52.00085300;4.17406100;2023-07-20T05:05:40;16.00;99.90
9800;DHT22;4939;52.00085300;4.17406100;2023-07-20T05:08:06;15.80;99.90
9800;DHT22;4939;52.00085300;4.17406100;2023-07-20T05:10:32;17.50;99.90
9800;DHT22;4939;52.00085300;4.17406100;2023-07-20T05:12:58;15.80;99.90
9800;DHT22;4939;52.00085300;4.17406100;2023-07-20T05:15:24;15.80;99.90
9800;DHT22;4939;52.00085300;4.17406100;2023-07-20T05:17:50;15.80;99.90
9800;DHT22;4939;52.00085300;4.17406100;2023-07-20T05:20:16;16.00;99.90
9800;DHT22;4939;52.00085300;4.17406100;2023-07-20T05:22:42;16.00;99.90
9800;DHT22;4939;52.00085300;4.17406100;2023-07-20T05:25:09;17.90;99.90
9800;DHT22;4939;52.00085300;4.17406100;2023-07-20T05:27:39;16.30;99.90
9800;DHT22;4939;52.00085300;4.17406100;2023-07-20T05:30:07;16.40;99.90
9800;DHT22;4939;52.00085300;4.17406100;2023-07-20T05:32:33;16.40;99.90
9800;DHT22;4939;52.00085300;4.17406100;2023-07-20T05:34:59;16.50;99.90
9800;DHT22;4939;52.00085300;4.17406100;2023-07-20T05:37:24;16.50;99.90
9800;DHT22;4939;52.00085300;4.17406100;2023-07-20T05:39:50;16.50;99.90
9800;DHT22;4939;52.00085300;4.17406100;2023-07-20T05:42:16;16.50;99.90
9800;DHT22;4939;52.00085300;4.17406100;2023-07-20T05:44:42;16.60;99.90
9800;DHT22;4939;52.00085300;4.17406100;2023-07-20T05:47:08;16.60;99.90
9800;DHT22;4939;52.00085300;4.17406100;2023-07-20T05:49:34;16.90;99.90
9800;DHT22;4939;52.00085300;4.17406100;2023-07-20T05:52:00;16.70;99.90
9800;DHT22;4939;52.00085300;4.17406100;2023-07-20T05:54:27;16.80;99.90
9800;DHT22;4939;52.00085300;4.17406100;2023-07-20T05:56:53;17.00;99.90
9800;DHT22;4939;52.00085300;4.17406100;2023-07-20T05:59:19;17.00;99.90
9800;DHT22;4939;52.00085300;4.17406100;2023-07-20T06:01:49;17.10;99.90
9800;DHT22;4939;52.00085300;4.17406100;2023-07-20T06:04:15;17.00;99.90
9800;DHT22;4939;52.00085300;4.17406100;2023-07-20T06:06:41;17.60;99.90
9800;DHT22;4939;52.00085300;4.17406100;2023-07-20T06:09:06;17.10;99.90
9800;DHT22;4939;52.00085300;4.17406100;2023-07-20T06:11:40;18.40;99.90
9800;DHT22;4939;52.00085300;4.17406100;2023-07-20T06:14:06;17.00;99.90
9800;DHT22;4939;52.00085300;4.17406100;2023-07-20T06:16:32;17.00;99.90
9800;DHT22;4939;52.00085300;4.17406100;2023-07-20T06:18:59;17.00;99.90
9800;DHT22;4939;52.00085300;4.17406100;2023-07-20T06:21:25;17.20;99.90
9800;DHT22;4939;52.00085300;4.17406100;2023-07-20T06:23:50;17.30;99.90
9800;DHT22;4939;52.00085300;4.17406100;2023-07-20T06:26:16;17.40;99.90
9800;DHT22;4939;52.00085300;4.17406100;2023-07-20T06:28:42;17.50;99.90
9800;DHT22;4939;52.00085300;4.17406100;2023-07-20T06:31:07;17.50;99.90
9800;DHT22;4939;52.00085300;4.17406100;2023-07-20T06:33:33;17.50;99.90
9800;DHT22;4939;52.00085300;4.17406100;2023-07-20T06:36:00;17.50;99.90
9800;DHT22;4939;52.00085300;4.17406100;2023-07-20T06:38:29;17.50;99.90
9800;DHT22;4939;52.00085300;4.17406100;2023-07-20T06:40:55;17.40;99.90
9800;DHT22;4939;52.00085300;4.17406100;2023-07-20T06:43:20;17.40;99.90
9800;DHT22;4939;52.00085300;4.17406100;2023-07-20T06:45:51;17.50;99.90
9800;DHT22;4939;52.00085300;4.17406100;2023-07-20T06:48:18;17.60;99.90
9800;DHT22;4939;52.00085300;4.17406100;2023-07-20T06:50:43;17.70;99.90
9800;DHT22;4939;52.00085300;4.17406100;2023-07-20T06:53:09;17.90;99.90
9800;DHT22;4939;52.00085300;4.17406100;2023-07-20T06:55:36;18.00;99.90
9800;DHT22;4939;52.00085300;4.17406100;2023-07-20T06:58:02;18.20;99.90
9800;DHT22;4939;52.00085300;4.17406100;2023-07-20T07:00:28;18.30;99.90
9800;DHT22;4939;52.00085300;4.17406100;2023-07-20T07:02:54;18.40;99.90
9800;DHT22;4939;52.00085300;4.17406100;2023-07-20T07:05:19;18.30;99.90
9800;DHT22;4939;52.00085300;4.17406100;2023-07-20T07:07:45;18.20;99.90
9800;DHT22;4939;52.00085300;4.17406100;2023-07-20T07:10:11;18.20;99.90
9800;DHT22;4939;52.00085300;4.17406100;2023-07-20T07:12:36;20.50;99.90
9800;DHT22;4939;52.00085300;4.17406100;2023-07-20T07:15:03;18.00;99.90
9800;DHT22;4939;52.00085300;4.17406100;2023-07-20T07:17:31;18.10;99.90
9800;DHT22;4939;52.00085300;4.17406100;2023-07-20T07:19:58;18.10;99.90
9800;DHT22;4939;52.00085300;4.17406100;2023-07-20T07:22:24;18.20;99.90
9800;DHT22;4939;52.00085300;4.17406100;2023-07-20T07:24:50;18.20;99.90
9800;DHT22;4939;52.00085300;4.17406100;2023-07-20T07:27:16;18.10;99.90
9800;DHT22;4939;52.00085300;4.17406100;2023-07-20T07:29:42;18.10;99.90
9800;DHT22;4939;52.00085300;4.17406100;2023-07-20T07:32:10;18.10;99.90
9800;DHT22;4939;52.00085300;4.17406100;2023-07-20T07:34:37;18.20;99.90
9800;DHT22;4939;52.00085300;4.17406100;2023-07-20T07:37:04;18.30;99.90
9800;DHT22;4939;52.00085300;4.17406100;2023-07-20T07:39:29;18.30;99.90
9800;DHT22;4939;52.00085300;4.17406100;2023-07-20T07:41:56;18.30;99.90
9800;DHT22;4939;52.00085300;4.17406100;2023-07-20T07:44:22;18.80;99.90
9800;DHT22;4939;52.00085300;4.17406100;2023-07-20T07:46:47;18.20;99.90
9800;DHT22;4939;52.00085300;4.17406100;2023-07-20T07:49:15;18.50;99.90
9800;DHT22;4939;52.00085300;4.17406100;2023-07-20T07:51:40;18.50;99.90
9800;DHT22;4939;52.00085300;4.17406100;2023-07-20T07:54:06;18.60;99.90
9800;DHT22;4939;52.00085300;4.17406100;2023-07-20T07:56:32;18.70;99.90
9800;DHT22;4939;52.00085300;4.17406100;2023-07-20T07:58:58;21.60;99.90
9800;DHT22;4939;52.00085300;4.17406100;2023-07-20T08:01:23;18.80;99.90
9800;DHT22;4939;52.00085300;4.17406100;2023-07-20T08:03:49;18.90;99.90
9800;DHT22;4939;52.00085300;4.17406100;2023-07-20T08:06:15;19.40;99.90
9800;DHT22;4939;52.00085300;4.17406100;2023-07-20T08:08:41;19.10;99.90
9800;DHT22;4939;52.00085300;4.17406100;2023-07-20T08:11:08;19.10;99.90
9800;DHT22;4939;52.00085300;4.17406100;2023-07-20T08:13:34;19.20;99.90
9800;DHT22;4939;52.00085300;4.17406100;2023-07-20T08:16:01;19.40;99.90
9800;DHT22;4939;52.00085300;4.17406100;2023-07-20T08:18:29;19.30;99.90
9800;DHT22;4939;52.00085300;4.17406100;2023-07-20T08:20:55;19.40;99.90
9800;DHT22;4939;52.00085300;4.17406100;2023-07-20T08:23:21;19.40;99.90
9800;DHT22;4939;52.00085300;4.17406100;2023-07-20T08:25:47;22.00;99.90
9800;DHT22;4939;52.00085300;4.17406100;2023-07-20T08:28:14;22.10;99.90
9800;DHT22;4939;52.00085300;4.17406100;2023-07-20T08:30:47;20.40;99.90
9800;DHT22;4939;52.00085300;4.17406100;2023-07-20T08:33:14;19.80;99.90
9800;DHT22;4939;52.00085300;4.17406100;2023-07-20T08:35:41;19.70;99.90
9800;DHT22;4939;52.00085300;4.17406100;2023-07-20T08:38:07;19.60;99.90
9800;DHT22;4939;52.00085300;4.17406100;2023-07-20T08:40:34;19.50;99.90
9800;DHT22;4939;52.00085300;4.17406100;2023-07-20T08:43:04;19.60;99.90
9800;DHT22;4939;52.00085300;4.17406100;2023-07-20T08:45:32;19.80;99.90
9800;DHT22;4939;52.00085300;4.17406100;2023-07-20T08:48:00;19.90;99.90
9800;DHT22;4939;52.00085300;4.17406100;2023-07-20T08:50:30;20.00;99.90
9800;DHT22;4939;52.00085300;4.17406100;2023-07-20T08:52:58;20.20;99.90
9800;DHT22;4939;52.00085300;4.17406100;2023-07-20T08:55:28;19.80;99.90
9800;DHT22;4939;52.00085300;4.17406100;2023-07-20T08:57:55;19.90;99.90
9800;DHT22;4939;52.00085300;4.17406100;2023-07-20T09:00:22;20.30;99.90
9800;DHT22;4939;52.00085300;4.17406100;2023-07-20T09:02:51;20.10;99.90
9800;DHT22;4939;52.00085300;4.17406100;2023-07-20T09:05:18;20.40;99.90
9800;DHT22;4939;52.00085300;4.17406100;2023-07-20T09:07:44;20.50;99.90
9800;DHT22;4939;52.00085300;4.17406100;2023-07-20T09:10:10;20.50;99.90
9800;DHT22;4939;52.00085300;4.17406100;2023-07-20T09:12:40;20.60;99.90
9800;DHT22;4939;52.00085300;4.17406100;2023-07-20T09:15:07;20.30;99.90
9800;DHT22;4939;52.00085300;4.17406100;2023-07-20T09:17:33;20.40;99.90
9800;DHT22;4939;52.00085300;4.17406100;2023-07-20T09:20:02;20.60;99.90
9800;DHT22;4939;52.00085300;4.17406100;2023-07-20T09:22:31;20.90;99.90
9800;DHT22;4939;52.00085300;4.17406100;2023-07-20T09:24:58;21.30;99.90
9800;DHT22;4939;52.00085300;4.17406100;2023-07-20T09:27:37;21.60;99.90
9800;DHT22;4939;52.00085300;4.17406100;2023-07-20T09:30:04;21.70;99.90
9800;DHT22;4939;52.00085300;4.17406100;2023-07-20T09:32:38;21.80;99.90
9800;DHT22;4939;52.00085300;4.17406100;2023-07-20T09:35:06;21.70;99.90
9800;DHT22;4939;52.00085300;4.17406100;2023-07-20T09:37:33;21.80;99.90
9800;DHT22;4939;52.00085300;4.17406100;2023-07-20T09:39:59;22.10;99.90
9800;DHT22;4939;52.00085300;4.17406100;2023-07-20T09:42:25;21.80;99.90
9800;DHT22;4939;52.00085300;4.17406100;2023-07-20T09:44:52;22.00;99.90
9800;DHT22;4939;52.00085300;4.17406100;2023-07-20T09:47:25;22.00;99.90
9800;DHT22;4939;52.00085300;4.17406100;2023-07-20T09:49:58;22.10;99.90
9800;DHT22;4939;52.00085300;4.17406100;2023-07-20T09:52:25;21.80;99.90
9800;DHT22;4939;52.00085300;4.17406100;2023-07-20T09:54:51;21.80;99.90
9800;DHT22;4939;52.00085300;4.17406100;2023-07-20T09:57:17;22.00;99.90
9800;DHT22;4939;52.00085300;4.17406100;2023-07-20T09:59:43;22.00;99.90
9800;DHT22;4939;52.00085300;4.17406100;2023-07-20T10:02:21;21.90;99.90
9800;DHT22;4939;52.00085300;4.17406100;2023-07-20T10:04:53;21.90;99.90
9800;DHT22;4939;52.00085300;4.17406100;2023-07-20T10:07:19;22.00;99.90
9800;DHT22;4939;52.00085300;4.17406100;2023-07-20T10:09:48;22.10;99.90
9800;DHT22;4939;52.00085300;4.17406100;2023-07-20T10:12:16;21.80;99.90
9800;DHT22;4939;52.00085300;4.17406100;2023-07-20T10:14:47;21.70;99.90
9800;DHT22;4939;52.00085300;4.17406100;2023-07-20T10:17:16;21.80;99.90
9800;DHT22;4939;52.00085300;4.17406100;2023-07-20T10:19:44;22.00;99.90
9800;DHT22;4939;52.00085300;4.17406100;2023-07-20T10:22:14;22.10;99.90
9800;DHT22;4939;52.00085300;4.17406100;2023-07-20T10:24:45;22.00;99.90
9800;DHT22;4939;52.00085300;4.17406100;2023-07-20T10:27:12;21.90;99.90
9800;DHT22;4939;52.00085300;4.17406100;2023-07-20T10:29:40;22.00;99.90
9800;DHT22;4939;52.00085300;4.17406100;2023-07-20T10:32:08;22.10;99.90
9800;DHT22;4939;52.00085300;4.17406100;2023-07-20T10:34:34;22.20;99.90
9800;DHT22;4939;52.00085300;4.17406100;2023-07-20T10:37:00;22.40;99.90
9800;DHT22;4939;52.00085300;4.17406100;2023-07-20T10:39:27;22.30;99.90
9800;DHT22;4939;52.00085300;4.17406100;2023-07-20T10:42:03;22.40;99.90
9800;DHT22;4939;52.00085300;4.17406100;2023-07-20T10:44:30;22.40;99.90
9800;DHT22;4939;52.00085300;4.17406100;2023-07-20T10:47:03;22.40;99.90
9800;DHT22;4939;52.00085300;4.17406100;2023-07-20T10:49:34;22.60;99.90
9800;DHT22;4939;52.00085300;4.17406100;2023-07-20T10:52:05;22.30;99.90
9800;DHT22;4939;52.00085300;4.17406100;2023-07-20T10:54:35;22.50;99.90
9800;DHT22;4939;52.00085300;4.17406100;2023-07-20T10:57:23;22.60;99.90
9800;DHT22;4939;52.00085300;4.17406100;2023-07-20T10:59:49;20.30;99.90
9800;DHT22;4939;52.00085300;4.17406100;2023-07-20T11:02:18;22.70;99.90
9800;DHT22;4939;52.00085300;4.17406100;2023-07-20T11:04:45;22.80;99.90
9800;DHT22;4939;52.00085300;4.17406100;2023-07-20T11:07:15;22.20;99.90
9800;DHT22;4939;52.00085300;4.17406100;2023-07-20T11:09:42;22.30;1.00
9800;DHT22;4939;52.00085300;4.17406100;2023-07-20T11:12:13;22.30;1.00
9800;DHT22;4939;52.00085300;4.17406100;2023-07-20T11:14:56;22.30;99.90
9800;DHT22;4939;52.00085300;4.17406100;2023-07-20T11:17:29;22.50;99.90
9800;DHT22;4939;52.00085300;4.17406100;2023-07-20T11:19:59;22.60;99.90
9800;DHT22;4939;52.00085300;4.17406100;2023-07-20T11:22:30;23.10;99.90
9800;DHT22;4939;52.00085300;4.17406100;2023-07-20T11:24:59;22.90;99.90
9800;DHT22;4939;52.00085300;4.17406100;2023-07-20T11:27:25;22.40;1.00
9800;DHT22;4939;52.00085300;4.17406100;2023-07-20T11:29:50;21.90;99.90
9800;DHT22;4939;52.00085300;4.17406100;2023-07-20T11:32:25;22.40;99.90
9800;DHT22;4939;52.00085300;4.17406100;2023-07-20T11:34:51;21.60;99.90
9800;DHT22;4939;52.00085300;4.17406100;2023-07-20T11:37:17;21.60;99.90
9800;DHT22;4939;52.00085300;4.17406100;2023-07-20T11:39:44;21.70;99.90
9800;DHT22;4939;52.00085300;4.17406100;2023-07-20T11:42:09;21.70;6.60
9800;DHT22;4939;52.00085300;4.17406100;2023-07-20T11:44:35;22.00;63.50
9800;DHT22;4939;52.00085300;4.17406100;2023-07-20T11:49:50;21.80;1.00
9800;DHT22;4939;52.00085300;4.17406100;2023-07-20T11:52:22;21.90;1.00
9800;DHT22;4939;52.00085300;4.17406100;2023-07-20T11:55:21;22.00;1.00
9800;DHT22;4939;52.00085300;4.17406100;2023-07-20T11:58:20;21.70;1.00
9800;DHT22;4939;52.00085300;4.17406100;2023-07-20T12:01:18;22.60;1.00
9800;DHT22;4939;52.00085300;4.17406100;2023-07-20T12:04:17;22.60;99.90
9800;DHT22;4939;52.00085300;4.17406100;2023-07-20T12:07:16;22.60;99.90
9800;DHT22;4939;52.00085300;4.17406100;2023-07-20T12:10:13;22.70;99.90
9800;DHT22;4939;52.00085300;4.17406100;2023-07-20T12:13:11;22.40;99.90
9800;DHT22;4939;52.00085300;4.17406100;2023-07-20T12:16:16;22.40;26.00
9800;DHT22;4939;52.00085300;4.17406100;2023-07-20T12:19:16;22.40;2.80
9800;DHT22;4939;52.00085300;4.17406100;2023-07-20T12:22:14;22.30;1.00
9800;DHT22;4939;52.00085300;4.17406100;2023-07-20T12:25:12;22.20;1.00
9800;DHT22;4939;52.00085300;4.17406100;2023-07-20T12:27:38;22.10;1.00
9800;DHT22;4939;52.00085300;4.17406100;2023-07-20T12:30:06;21.90;99.90
9800;DHT22;4939;52.00085300;4.17406100;2023-07-20T12:32:33;21.80;99.90
9800;DHT22;4939;52.00085300;4.17406100;2023-07-20T12:34:58;21.90;99.90
9800;DHT22;4939;52.00085300;4.17406100;2023-07-20T12:37:26;21.90;99.90
9800;DHT22;4939;52.00085300;4.17406100;2023-07-20T12:39:52;21.90;99.90
9800;DHT22;4939;52.00085300;4.17406100;2023-07-20T12:42:18;22.10;99.90
9800;DHT22;4939;52.00085300;4.17406100;2023-07-20T12:44:45;22.00;99.90
9800;DHT22;4939;52.00085300;4.17406100;2023-07-20T12:47:11;22.20;90.00
9800;DHT22;4939;52.00085300;4.17406100;2023-07-20T12:49:36;22.40;53.40
9800;DHT22;4939;52.00085300;4.17406100;2023-07-20T12:52:02;22.40;1.00
9800;DHT22;4939;52.00085300;4.17406100;2023-07-20T12:54:29;22.20;1.00
9800;DHT22;4939;52.00085300;4.17406100;2023-07-20T12:56:54;22.10;1.00
9800;DHT22;4939;52.00085300;4.17406100;2023-07-20T12:59:20;22.40;1.00
9800;DHT22;4939;52.00085300;4.17406100;2023-07-20T13:01:46;22.60;1.00
9800;DHT22;4939;52.00085300;4.17406100;2023-07-20T13:04:12;22.70;1.00
9800;DHT22;4939;52.00085300;4.17406100;2023-07-20T13:06:39;22.90;1.00
9800;DHT22;4939;52.00085300;4.17406100;2023-07-20T13:09:04;23.20;1.00
9800;DHT22;4939;52.00085300;4.17406100;2023-07-20T13:11:30;22.60;1.00
9800;DHT22;4939;52.00085300;4.17406100;2023-07-20T13:13:56;23.20;1.00
9800;DHT22;4939;52.00085300;4.17406100;2023-07-20T13:16:21;23.40;1.00
9800;DHT22;4939;52.00085300;4.17406100;2023-07-20T13:18:47;23.40;1.00
9800;DHT22;4939;52.00085300;4.17406100;2023-07-20T13:21:13;23.40;1.00
9800;DHT22;4939;52.00085300;4.17406100;2023-07-20T13:23:39;23.40;1.00
9800;DHT22;4939;52.00085300;4.17406100;2023-07-20T13:26:05;23.60;1.00
9800;DHT22;4939;52.00085300;4.17406100;2023-07-20T13:28:31;23.80;1.00
9800;DHT22;4939;52.00085300;4.17406100;2023-07-20T13:30:56;23.50;99.90
9800;DHT22;4939;52.00085300;4.17406100;2023-07-20T13:33:22;23.30;99.90
9800;DHT22;4939;52.00085300;4.17406100;2023-07-20T13:35:49;22.90;99.90
9800;DHT22;4939;52.00085300;4.17406100;2023-07-20T13:38:14;22.90;97.30
9800;DHT22;4939;52.00085300;4.17406100;2023-07-20T13:40:41;22.80;1.00
9800;DHT22;4939;52.00085300;4.17406100;2023-07-20T13:43:08;22.40;1.00
9800;DHT22;4939;52.00085300;4.17406100;2023-07-20T13:45:37;22.20;1.00
9800;DHT22;4939;52.00085300;4.17406100;2023-07-20T13:48:03;23.60;1.00
9800;DHT22;4939;52.00085300;4.17406100;2023-07-20T13:50:28;22.40;1.00
9800;DHT22;4939;52.00085300;4.17406100;2023-07-20T13:52:55;22.50;1.00
9800;DHT22;4939;52.00085300;4.17406100;2023-07-20T13:55:21;22.40;1.00
9800;DHT22;4939;52.00085300;4.17406100;2023-07-20T13:57:47;22.10;1.00
9800;DHT22;4939;52.00085300;4.17406100;2023-07-20T14:00:13;22.50;1.00
9800;DHT22;4939;52.00085300;4.17406100;2023-07-20T14:02:39;23.00;1.00
9800;DHT22;4939;52.00085300;4.17406100;2023-07-20T14:05:05;23.00;1.00
9800;DHT22;4939;52.00085300;4.17406100;2023-07-20T14:07:31;23.50;1.00